createdAt,value
2022-09-11T00:00:50.812Z,5.33
2022-09-11T00:04:52.001Z,6.17
2022-09-11T00:08:57.611Z,4.97
2022-09-11T00:12:58.794Z,6.70
2022-09-11T00:16:59.900Z,5.70
2022-09-11T00:21:02.518Z,6.10
2022-09-11T00:25:04.129Z,6.43
2022-09-11T00:29:05.328Z,6.50
2022-09-11T00:33:06.514Z,6.03
2022-09-11T00:37:08.835Z,7.40
2022-09-11T00:41:16.724Z,8.30
2022-09-11T00:45:24.523Z,8.43
2022-09-11T00:49:32.428Z,7.20
2022-09-11T00:53:35.831Z,8.77
2022-09-11T00:57:47.046Z,8.63
2022-09-11T01:01:48.252Z,9.40
2022-09-11T01:05:49.525Z,9.00
2022-09-11T01:09:51.411Z,8.43
2022-09-11T01:14:05.536Z,8.20
2022-09-11T01:18:21.699Z,8.10
2022-09-11T01:22:32.953Z,9.97
2022-09-11T01:26:53.262Z,10.73
2022-09-11T01:30:58.669Z,11.03
2022-09-11T01:35:09.259Z,11.50
2022-09-11T01:39:11.754Z,14.77
2022-09-11T01:43:16.635Z,13.07
2022-09-11T01:47:20.342Z,15.70
2022-09-11T01:51:25.343Z,13.43
2022-09-11T01:55:34.088Z,13.77
2022-09-11T01:59:39.111Z,15.47
2022-09-11T02:03:44.095Z,13.70
2022-09-11T02:07:55.022Z,14.27
2022-09-11T02:11:59.519Z,14.40
2022-09-11T02:16:13.592Z,14.07
2022-09-11T02:20:15.607Z,14.87
2022-09-11T02:24:18.421Z,15.77
2022-09-11T02:28:19.611Z,16.00
2022-09-11T02:32:22.301Z,14.70
2022-09-11T02:36:45.011Z,16.30
2022-09-11T02:40:49.995Z,16.47
2022-09-11T02:45:11.489Z,16.13
2022-09-11T02:49:34.606Z,15.87
2022-09-11T02:54:10.016Z,17.73
2022-09-11T02:58:21.220Z,15.00
2022-09-11T03:02:27.021Z,16.57
2022-09-11T03:06:28.353Z,16.33
2022-09-11T03:10:29.528Z,18.93
2022-09-11T03:14:31.029Z,18.70
2022-09-11T03:18:32.492Z,17.00
2022-09-11T03:22:33.680Z,15.93
2022-09-11T03:26:36.062Z,18.50
2022-09-11T03:30:37.233Z,18.10
2022-09-11T03:34:38.417Z,17.80
2022-09-11T03:38:39.715Z,17.80
2022-09-11T03:42:40.883Z,20.60
2022-09-11T03:46:41.965Z,17.37
2022-09-11T03:50:44.827Z,18.10
2022-09-11T03:54:47.004Z,19.80
2022-09-11T03:58:48.298Z,19.60
2022-09-11T04:02:49.482Z,18.60
2022-09-11T04:06:50.857Z,18.70
2022-09-11T04:11:00.627Z,18.50
2022-09-11T04:15:01.803Z,18.73
2022-09-11T04:19:03.324Z,18.90
2022-09-11T04:23:04.482Z,19.43
2022-09-11T04:27:05.981Z,20.50
2022-09-11T04:31:07.135Z,18.57
2022-09-11T04:35:08.838Z,19.53
2022-09-11T04:39:10.900Z,20.20
2022-09-11T04:43:12.201Z,20.33
2022-09-11T04:51:09.486Z,20.63
2022-09-11T04:55:10.979Z,20.97
2022-09-11T04:59:15.483Z,20.73
2022-09-11T05:03:17.283Z,19.93
2022-09-11T05:07:18.659Z,20.10
2022-09-11T05:11:20.369Z,18.57
2022-09-11T05:15:21.542Z,20.97
2022-09-11T05:19:22.883Z,21.80
2022-09-11T05:23:25.062Z,18.30
2022-09-11T05:27:26.255Z,20.37
2022-09-11T05:31:31.569Z,21.43
2022-09-11T05:35:32.683Z,19.20
2022-09-11T05:39:33.859Z,20.53
2022-09-11T05:43:35.678Z,20.87
2022-09-11T05:47:36.868Z,22.10
2022-09-11T05:51:39.960Z,20.60
2022-09-11T05:55:41.050Z,21.90
2022-09-11T05:59:42.227Z,24.27
2022-09-11T06:03:44.004Z,23.87
2022-09-11T06:07:45.298Z,24.17
2022-09-11T06:11:46.473Z,27.13
2022-09-11T06:15:48.485Z,26.47
2022-09-11T06:19:50.652Z,25.50
2022-09-11T06:23:52.545Z,26.33
2022-09-11T06:27:55.036Z,24.30
2022-09-11T06:31:56.248Z,24.63
2022-09-11T06:35:58.927Z,25.60
2022-09-11T06:40:00.185Z,26.90
2022-09-11T06:44:01.709Z,27.60
2022-09-11T06:48:03.636Z,28.70
2022-09-11T06:52:04.934Z,27.57
2022-09-11T06:56:08.490Z,28.07
2022-09-11T07:00:10.630Z,27.30
2022-09-11T07:04:11.845Z,28.30
2022-09-11T07:08:13.483Z,28.27
2022-09-11T07:12:14.581Z,26.80
2022-09-11T07:16:16.103Z,28.10
2022-09-11T07:20:17.402Z,28.50
2022-09-11T07:24:18.859Z,26.00
2022-09-11T07:28:20.574Z,28.20
2022-09-11T07:32:21.758Z,27.63
2022-09-11T07:36:26.254Z,30.13
2022-09-11T07:40:27.445Z,23.80
2022-09-11T07:44:28.525Z,25.60
2022-09-11T07:48:29.901Z,25.63
2022-09-11T07:52:31.097Z,26.03
2022-09-11T07:56:33.791Z,24.87
2022-09-11T08:00:37.176Z,25.00
2022-09-11T08:04:38.465Z,26.33
2022-09-11T08:08:40.865Z,26.67
2022-09-11T08:12:42.355Z,24.47
2022-09-11T08:16:44.475Z,24.00
2022-09-11T08:20:45.832Z,25.27
2022-09-11T08:24:47.015Z,23.63
2022-09-11T08:28:50.133Z,21.20
2022-09-11T08:32:51.327Z,22.40
2022-09-11T08:36:52.509Z,20.60
2022-09-11T08:40:55.500Z,19.13
2022-09-11T08:44:58.989Z,20.17
2022-09-11T08:49:25.170Z,20.53
2022-09-11T08:53:30.197Z,18.50
2022-09-11T08:57:35.204Z,20.03
2022-09-11T09:01:59.819Z,19.43
2022-09-11T09:06:30.576Z,17.90
2022-09-11T09:10:42.125Z,21.07
2022-09-11T09:15:13.278Z,21.53
2022-09-11T09:19:27.488Z,20.43
2022-09-11T09:23:32.496Z,20.10
2022-09-11T09:27:36.872Z,19.67
2022-09-11T09:31:40.640Z,18.30
2022-09-11T09:35:44.225Z,18.70
2022-09-11T09:39:46.090Z,19.13
2022-09-11T09:43:57.321Z,19.30
2022-09-11T09:48:00.595Z,16.30
2022-09-11T09:52:08.884Z,19.97
2022-09-11T09:56:15.585Z,19.07
2022-09-11T10:00:21.557Z,17.47
2022-09-11T10:04:25.335Z,18.90
2022-09-11T10:08:33.009Z,18.90
2022-09-11T10:12:35.213Z,50.33
2022-09-11T10:16:36.804Z,42.23
2022-09-11T10:20:38.011Z,26.40
2022-09-11T10:24:42.033Z,21.97
2022-09-11T10:28:45.642Z,22.00
2022-09-11T10:32:46.815Z,18.87
2022-09-11T10:36:59.091Z,20.57
2022-09-11T10:41:10.214Z,18.10
2022-09-11T10:45:16.225Z,18.93
2022-09-11T10:49:21.563Z,18.57
2022-09-11T10:53:24.763Z,16.60
2022-09-11T10:57:46.670Z,19.27
2022-09-11T11:01:48.919Z,19.33
2022-09-11T11:06:30.825Z,17.30
2022-09-11T11:11:01.655Z,17.47
2022-09-11T11:15:30.048Z,19.43
2022-09-11T11:19:57.987Z,16.43
2022-09-11T11:24:18.323Z,17.30
2022-09-11T11:28:32.092Z,17.67
2022-09-11T11:32:46.417Z,16.67
2022-09-11T11:37:12.546Z,16.00
2022-09-11T11:41:18.650Z,14.70
2022-09-11T11:45:26.661Z,15.67
2022-09-11T11:49:54.177Z,15.83
2022-09-11T11:54:06.074Z,14.40
2022-09-11T11:58:38.907Z,15.10
2022-09-11T12:02:48.757Z,14.30
2022-09-11T12:06:50.550Z,14.63
2022-09-11T12:11:01.543Z,14.10
2022-09-11T12:15:09.082Z,14.93
2022-09-11T12:19:17.012Z,15.60
2022-09-11T12:23:34.323Z,14.57
2022-09-11T12:27:39.243Z,18.63
2022-09-11T12:31:50.416Z,13.67
2022-09-11T12:35:52.703Z,12.87
2022-09-11T12:39:58.056Z,13.07
2022-09-11T12:44:00.712Z,13.33
2022-09-11T12:48:05.011Z,11.70
2022-09-11T12:52:10.177Z,11.67
2022-09-11T12:56:18.828Z,10.90
2022-09-11T13:00:30.044Z,10.27
2022-09-11T13:04:32.355Z,11.37
2022-09-11T13:08:40.422Z,11.53
2022-09-11T13:12:53.307Z,10.77
2022-09-11T13:16:58.206Z,10.63
2022-09-11T13:21:11.849Z,9.67
2022-09-11T13:25:21.700Z,10.17
2022-09-11T13:29:26.088Z,9.30
2022-09-11T13:33:29.172Z,9.33
2022-09-11T13:37:43.431Z,10.40
2022-09-11T13:41:47.257Z,10.23
2022-09-11T13:45:48.608Z,10.73
2022-09-11T13:49:53.354Z,10.50
2022-09-11T13:54:10.978Z,10.63
2022-09-11T13:58:23.960Z,10.90
2022-09-11T14:02:39.795Z,10.73
2022-09-11T14:06:45.177Z,10.83
2022-09-11T14:10:49.360Z,9.83
2022-09-11T14:14:57.290Z,10.13
2022-09-11T14:19:20.726Z,11.27
2022-09-11T14:23:27.349Z,11.43
2022-09-11T14:27:36.688Z,10.63
2022-09-11T14:31:40.984Z,10.07
2022-09-11T14:35:44.446Z,9.60
2022-09-11T14:39:49.468Z,10.13
2022-09-11T14:43:50.694Z,8.63
2022-09-11T14:47:52.724Z,9.07
2022-09-11T14:52:00.779Z,10.00
2022-09-11T14:56:03.352Z,8.70
2022-09-11T15:00:05.745Z,8.50
2022-09-11T15:04:12.288Z,10.20
2022-09-11T15:08:13.751Z,10.83
2022-09-11T15:12:15.131Z,9.83
2022-09-11T15:16:16.396Z,10.07
2022-09-11T15:20:18.436Z,10.43
2022-09-11T15:24:19.639Z,9.40
2022-09-11T15:28:20.813Z,8.90
2022-09-11T15:32:22.305Z,9.33
2022-09-11T15:36:25.418Z,10.40
2022-09-11T15:40:26.520Z,11.83
2022-09-11T15:44:28.523Z,9.10
2022-09-11T15:48:30.393Z,10.23
2022-09-11T15:52:36.255Z,10.10
2022-09-11T15:56:37.565Z,9.67
2022-09-11T16:00:38.775Z,9.70
2022-09-11T16:04:40.032Z,9.07
2022-09-11T16:08:41.218Z,9.20
2022-09-11T16:12:42.421Z,8.97
2022-09-11T16:16:46.023Z,9.20
2022-09-11T16:20:57.296Z,9.50
2022-09-11T16:24:58.736Z,9.10
2022-09-11T16:29:01.424Z,8.87
2022-09-11T16:33:03.349Z,9.90
2022-09-11T16:37:04.954Z,8.87
2022-09-11T16:41:15.956Z,9.07
2022-09-11T16:45:17.160Z,8.60
2022-09-11T16:49:18.947Z,8.90
2022-09-11T16:53:25.178Z,9.50
2022-09-11T16:57:29.119Z,8.23
2022-09-11T17:01:30.613Z,8.90
2022-09-11T17:05:32.219Z,9.83
2022-09-11T17:09:33.419Z,9.30
2022-09-11T17:13:34.941Z,9.20
2022-09-11T17:17:37.247Z,10.07
2022-09-11T17:21:38.830Z,10.03
2022-09-11T17:25:40.360Z,8.70
2022-09-11T17:29:44.637Z,10.03
2022-09-11T17:33:45.626Z,10.10
2022-09-11T17:37:46.902Z,10.30
2022-09-11T17:41:48.185Z,10.60
2022-09-11T17:45:51.421Z,9.23
2022-09-11T17:49:52.527Z,9.80
2022-09-11T17:53:57.376Z,11.13
2022-09-11T17:57:58.545Z,9.70
2022-09-11T18:02:01.474Z,9.30
2022-09-11T18:06:04.993Z,8.77
2022-09-11T18:10:08.066Z,9.70
2022-09-11T18:14:10.659Z,11.30
2022-09-11T18:18:11.847Z,11.97
2022-09-11T18:22:13.023Z,11.17
2022-09-11T18:26:25.129Z,9.23
2022-09-11T18:30:26.583Z,10.67
2022-09-11T18:34:28.661Z,10.57
2022-09-11T18:38:32.936Z,10.50
2022-09-11T18:42:32.830Z,10.90
2022-09-11T18:46:36.011Z,11.10
2022-09-11T18:50:37.787Z,10.00
2022-09-11T18:54:39.014Z,9.17
2022-09-11T18:58:40.312Z,10.27
2022-09-11T19:02:41.691Z,10.67
2022-09-11T19:06:44.598Z,10.43
2022-09-11T19:10:45.778Z,11.07
2022-09-11T19:14:47.889Z,11.83
2022-09-11T19:18:49.394Z,10.87
2022-09-11T19:22:50.568Z,10.83
2022-09-11T19:26:52.241Z,11.57
2022-09-11T19:30:56.931Z,11.33
2022-09-11T19:35:00.152Z,10.27
2022-09-11T19:39:02.255Z,11.53
2022-09-11T19:43:03.459Z,10.97
2022-09-11T19:47:05.624Z,10.93
2022-09-11T19:51:13.277Z,10.60
2022-09-11T19:55:14.491Z,11.40
2022-09-11T19:59:16.266Z,10.37
2022-09-11T20:03:17.868Z,11.37
2022-09-11T20:07:19.088Z,12.57
2022-09-11T20:11:24.506Z,12.67
2022-09-11T20:15:25.684Z,12.23
2022-09-11T20:19:26.930Z,11.20
2022-09-11T20:23:29.036Z,9.60
2022-09-11T20:27:30.247Z,11.87
2022-09-11T20:31:45.636Z,11.20
2022-09-11T20:35:42.636Z,10.57
2022-09-11T20:39:43.814Z,10.67
2022-09-11T20:43:45.811Z,11.10
2022-09-11T20:47:47.231Z,11.30
2022-09-11T20:51:48.326Z,10.60
2022-09-11T20:55:49.607Z,11.43
2022-09-11T20:59:50.901Z,13.43
2022-09-11T21:03:55.763Z,12.03
2022-09-11T21:07:56.840Z,12.40
2022-09-11T21:11:58.026Z,12.83
2022-09-11T21:15:59.155Z,11.80
2022-09-11T21:20:00.485Z,12.30
2022-09-11T21:24:04.362Z,12.73
2022-09-11T21:28:05.538Z,12.17
2022-09-11T21:32:06.716Z,12.30
2022-09-11T21:36:08.141Z,11.73
2022-09-11T21:40:10.062Z,12.50
2022-09-11T21:44:11.389Z,12.67
2022-09-11T21:48:13.018Z,11.90
2022-09-11T21:52:14.277Z,12.20
2022-09-11T21:56:24.150Z,11.20
2022-09-11T22:00:25.368Z,10.90
2022-09-11T22:04:26.910Z,11.20
2022-09-11T22:08:28.355Z,11.83
2022-09-11T22:12:29.877Z,11.60
2022-09-11T22:16:32.494Z,12.50
2022-09-11T22:20:36.523Z,11.90
2022-09-11T22:24:40.761Z,12.30
2022-09-11T22:28:43.173Z,11.10
2022-09-11T22:32:44.553Z,12.23
2022-09-11T22:36:46.374Z,12.03
2022-09-11T22:40:52.844Z,12.77
2022-09-11T22:44:54.140Z,11.60
2022-09-11T22:48:55.412Z,13.27
2022-09-11T22:52:56.603Z,11.60
2022-09-11T22:56:57.925Z,12.17
2022-09-11T23:01:00.275Z,13.57
2022-09-11T23:05:20.952Z,13.10
2022-09-11T23:09:22.173Z,15.10
2022-09-11T23:13:23.357Z,13.60
2022-09-11T23:17:24.957Z,14.10
2022-09-11T23:21:27.349Z,13.97
2022-09-11T23:25:28.532Z,12.63
2022-09-11T23:29:29.764Z,14.00
2022-09-11T23:33:30.842Z,13.20
2022-09-11T23:37:33.645Z,13.87
2022-09-11T23:41:34.932Z,13.47
2022-09-11T23:45:36.154Z,13.93
2022-09-11T23:49:37.288Z,14.63
2022-09-11T23:53:39.984Z,14.13
2022-09-11T23:57:41.249Z,13.83
